CheckWX is a tool to help pilots better visualize weather data.  It is not intended as a substitute for an official pre-flight weather briefing.

07:09:00 UTC

KOLF TAF
L M Clayton Airport
Wolf Point, Montana, USA
KOLF 230520Z 2306/2406 VRB03KT P6SM SKC FM232000 27013G21KT P6SM FEW120 FM240500 VRB05KT P6SM BKN100

Sep-23@
06:00 UTC

Sep-23 @ 06:00 UTC

Sep-23@
20:00 UTC

Sep-23 @ 20:00 UTC

KOLF 230520Z 2306/2406 VRB03KT P6SM SKC
Wind
  • Variable at 3 KTS
Cloud Levels
  • Clear skies

Sep-23@
20:00 UTC

Sep-23 @ 20:00 UTC

Sep-24@
05:00 UTC

Sep-24 @ 05:00 UTC

FM232000 27013G21KT P6SM FEW120

From

From Standard forecast or significant change

Wind
  • 270° at 13 KTS
  • {Gusting to 21 KTS
Cloud Levels
  • Few at 12,000' AGL

Sep-24@
05:00 UTC

Sep-24 @ 05:00 UTC

Sep-24@
06:00 UTC

Sep-24 @ 06:00 UTC

FM240500 VRB05KT P6SM BKN100

From

From Standard forecast or significant change

Wind
  • Variable at 5 KTS
Cloud Levels
  • Broken at 10,000' AGL